Airfield :
LOGIN :

Register | Disclaimer

   EN    FR    IT 

 










Legend :    VFR   Marginal VFR   IFR   Intensive IFR   Very Intensive IFR
Visi :
Ceiling :
>= 8 km
>= 3000ft
5 to 8 km
1000 to 3000 ft
1500m to 5 km
500 to 1000 ft
800 to 1500m
200 to 500 ft
< 800m
< 200 ft
Symbols :   Thunderstorms  Fog  Heavy snow  Heavy precipitations  Wind > 20 kt
SIGMETs :     Misc.  Thunderstorms  Icing  Turbulence  Mountain Waves  Volcanic Ashes






- Airport Elevation : 16 ft
- IATA code : LPX


EVLA - Liepaja

CURRENT METAR :
  • 011420Z AUTO 23013KT 9999 SCT028/// 20/13 Q1006

EXPIRED METARs :
  • 011350Z AUTO 23015KT 200V260 9999 BKN028/// 19/13 Q1006
  • 011320Z AUTO 22015KT 9999 BKN030/// BKN039/// 19/12 Q1006
  • 011250Z AUTO 24014KT 9999 SCT033/// SCT039/// 20/12 Q1006
  • 011220Z AUTO 24015KT 9999 SCT031/// 20/12 Q1006
  • 011150Z AUTO 24015KT 9999 FEW030/// SCT037/// 19/12 Q1005

TAF TAF EVLA
Valid from the 01 at 12:00 until the 02 at 12:00 UTC


011102Z 0112/0212 24015KT 9999 BKN020
TEMPO 0112/0113 23020G30KT
BECMG 0118/0120 VRB02KT
BECMG 0207/0209 26010KT



MET'MAP, your aeronautical weather chart ! - Copyright ORBIFLY December 2007 - Disclaimer

ORBIFLY MET'MAP TEAM :

Programming & Development : Alexandra Zaïnal
Concept & original design : Baudouin d'Aumeries
Assistance for programming : Marc-Olivier Méhu
Technical & hardware support : Manuel Goepfert

Contact : metmap@orbifly.com




SOURCES & CREDITS :

   NOAA